SWR223 LSGG-EDDL
Flight info
| Callsign | SWR223 |
|---|---|
| Flight time | N/A |
| Altitude | 34000 |
| Route | ARBOS DCT OBORN DCT ELVET DCT RUDOT DCT ROPUV DCT RASVO DCT BIKMU BIKMU1A |
| Aircraft | A20N/M-SDE2E3FGHIRWXY/LB1 |
Departure
| Time | N/A |
|---|---|
| Airport | Geneva International Airport (LSGG) |
Arrival
| Time | 2026-05-04 18:42 |
|---|---|
| Airport | Düsseldorf Airport (EDDL) |
| Time | Latitude | Longitude | Altitude | Speed | Heading |
|---|---|---|---|---|---|
| 2026-05-04 18:05 | 48.62948 | 7.19019 | 36850 ft | 470 kts | 354° |
| 2026-05-04 18:05 | 48.66249 | 7.18743 | 36507 ft | 467 kts | 354° |
| 2026-05-04 18:05 | 48.69432 | 7.18494 | 36125 ft | 466 kts | 354° |
| 2026-05-04 18:06 | 48.75978 | 7.18000 | 36007 ft | 475 kts | 354° |
| 2026-05-04 18:06 | 48.82582 | 7.17510 | 35993 ft | 476 kts | 354° |
| 2026-05-04 18:07 | 48.89187 | 7.17018 | 36006 ft | 474 kts | 354° |
| 2026-05-04 18:07 | 48.95774 | 7.16526 | 35991 ft | 475 kts | 354° |
| 2026-05-04 18:08 | 49.02380 | 7.16030 | 35981 ft | 475 kts | 354° |
| 2026-05-04 18:08 | 49.08977 | 7.15535 | 35972 ft | 475 kts | 354° |
| 2026-05-04 18:09 | 49.21977 | 7.12562 | 35964 ft | 472 kts | 346° |
| 2026-05-04 18:10 | 49.28394 | 7.10768 | 35970 ft | 472 kts | 346° |
| 2026-05-04 18:10 | 49.34642 | 7.09006 | 35973 ft | 473 kts | 346° |
| 2026-05-04 18:11 | 49.41112 | 7.07173 | 35982 ft | 473 kts | 346° |
| 2026-05-04 18:11 | 49.47543 | 7.05346 | 35989 ft | 473 kts | 346° |
| 2026-05-04 18:12 | 49.54023 | 7.03500 | 35990 ft | 474 kts | 346° |
| 2026-05-04 18:12 | 49.60508 | 7.01648 | 35998 ft | 474 kts | 346° |
| 2026-05-04 18:13 | 49.66996 | 6.99790 | 35992 ft | 474 kts | 346° |
| 2026-05-04 18:14 | 49.76710 | 6.96999 | 35994 ft | 475 kts | 346° |
| 2026-05-04 18:14 | 49.79954 | 6.96065 | 35806 ft | 470 kts | 346° |
| 2026-05-04 18:14 | 49.83153 | 6.95143 | 35021 ft | 470 kts | 346° |
| 2026-05-04 18:15 | 49.89639 | 6.93222 | 32792 ft | 476 kts | 345° |
| 2026-05-04 18:15 | 49.96188 | 6.91360 | 30519 ft | 481 kts | 348° |
| 2026-05-04 18:15 | 49.99451 | 6.90556 | 29488 ft | 480 kts | 347° |
| 2026-05-04 18:16 | 50.02723 | 6.89703 | 28748 ft | 472 kts | 347° |
| 2026-05-04 18:16 | 50.05941 | 6.88874 | 28021 ft | 465 kts | 347° |
| 2026-05-04 18:16 | 50.09101 | 6.88075 | 27304 ft | 458 kts | 348° |
| 2026-05-04 18:17 | 50.15312 | 6.86535 | 25913 ft | 446 kts | 348° |
| 2026-05-04 18:17 | 50.18359 | 6.85784 | 25404 ft | 441 kts | 348° |
| 2026-05-04 18:17 | 50.24356 | 6.84307 | 24414 ft | 431 kts | 348° |
| 2026-05-04 18:18 | 50.27194 | 6.83608 | 23950 ft | 426 kts | 348° |
| 2026-05-04 18:18 | 50.30112 | 6.82889 | 23428 ft | 422 kts | 348° |
| 2026-05-04 18:18 | 50.32856 | 6.82212 | 22877 ft | 418 kts | 348° |
| 2026-05-04 18:18 | 50.35369 | 6.81591 | 22346 ft | 415 kts | 348° |
| 2026-05-04 18:19 | 50.41028 | 6.80189 | 21197 ft | 409 kts | 348° |
| 2026-05-04 18:19 | 50.43836 | 6.79498 | 20631 ft | 406 kts | 350° |
| 2026-05-04 18:19 | 50.46624 | 6.79543 | 20333 ft | 400 kts | 9° |
| 2026-05-04 18:20 | 50.49295 | 6.80891 | 20227 ft | 409 kts | 22° |
| 2026-05-04 18:20 | 50.51916 | 6.82682 | 20117 ft | 409 kts | 23° |
| 2026-05-04 18:20 | 50.54508 | 6.84464 | 20019 ft | 406 kts | 23° |
| 2026-05-04 18:20 | 50.57102 | 6.86246 | 19987 ft | 406 kts | 23° |
| 2026-05-04 18:21 | 50.59690 | 6.88024 | 19887 ft | 405 kts | 23° |
| 2026-05-04 18:21 | 50.62244 | 6.89778 | 19604 ft | 402 kts | 23° |
| 2026-05-04 18:21 | 50.64825 | 6.91546 | 19156 ft | 400 kts | 23° |
| 2026-05-04 18:21 | 50.67362 | 6.93278 | 18666 ft | 397 kts | 23° |
| 2026-05-04 18:22 | 50.69494 | 6.94685 | 18225 ft | 394 kts | 18° |
| 2026-05-04 18:22 | 50.72159 | 6.95481 | 17645 ft | 390 kts | 0° |
| 2026-05-04 18:22 | 50.74796 | 6.94970 | 17059 ft | 384 kts | 341° |
| 2026-05-04 18:22 | 50.77245 | 6.93242 | 16476 ft | 379 kts | 328° |
| 2026-05-04 18:23 | 50.79456 | 6.91128 | 15938 ft | 376 kts | 326° |
| 2026-05-04 18:23 | 50.81697 | 6.89034 | 15389 ft | 374 kts | 328° |
| 2026-05-04 18:23 | 50.83980 | 6.87087 | 14865 ft | 372 kts | 330° |
| 2026-05-04 18:23 | 50.86288 | 6.85267 | 14359 ft | 370 kts | 332° |
| 2026-05-04 18:24 | 50.88608 | 6.83519 | 13847 ft | 368 kts | 333° |
| 2026-05-04 18:24 | 50.90922 | 6.81808 | 13325 ft | 364 kts | 333° |
| 2026-05-04 18:24 | 50.93194 | 6.80138 | 13160 ft | 361 kts | 333° |
| 2026-05-04 18:24 | 50.95463 | 6.78465 | 13045 ft | 354 kts | 333° |
| 2026-05-04 18:25 | 50.97645 | 6.76856 | 12975 ft | 339 kts | 333° |
| 2026-05-04 18:25 | 50.99729 | 6.75317 | 12971 ft | 322 kts | 333° |
| 2026-05-04 18:25 | 51.01742 | 6.73965 | 12970 ft | 312 kts | 344° |
| 2026-05-04 18:25 | 51.03923 | 6.73690 | 12979 ft | 319 kts | 2° |
| 2026-05-04 18:26 | 51.06137 | 6.73891 | 12974 ft | 317 kts | 3° |
| 2026-05-04 18:26 | 51.08342 | 6.74101 | 12973 ft | 316 kts | 3° |
| 2026-05-04 18:26 | 51.10534 | 6.74307 | 12964 ft | 316 kts | 3° |
| 2026-05-04 18:26 | 51.12700 | 6.74508 | 12797 ft | 314 kts | 3° |
| 2026-05-04 18:27 | 51.14896 | 6.74710 | 12385 ft | 311 kts | 3° |
| 2026-05-04 18:27 | 51.17026 | 6.74905 | 11882 ft | 310 kts | 3° |
| 2026-05-04 18:27 | 51.19171 | 6.75125 | 11516 ft | 307 kts | 7° |
| 2026-05-04 18:27 | 51.21167 | 6.76194 | 11173 ft | 301 kts | 33° |
| 2026-05-04 18:28 | 51.22679 | 6.78450 | 11046 ft | 303 kts | 52° |
| 2026-05-04 18:28 | 51.23971 | 6.81037 | 10972 ft | 301 kts | 53° |
| 2026-05-04 18:28 | 51.25245 | 6.83601 | 10960 ft | 287 kts | 53° |
| 2026-05-04 18:28 | 51.26447 | 6.86014 | 10962 ft | 271 kts | 53° |
| 2026-05-04 18:29 | 51.27607 | 6.88339 | 10725 ft | 265 kts | 53° |
| 2026-05-04 18:29 | 51.28756 | 6.90636 | 10387 ft | 264 kts | 53° |
| 2026-05-04 18:29 | 51.29897 | 6.92923 | 10066 ft | 263 kts | 53° |
| 2026-05-04 18:29 | 51.31024 | 6.95192 | 9736 ft | 261 kts | 53° |
| 2026-05-04 18:30 | 51.33238 | 6.99658 | 9041 ft | 259 kts | 53° |
| 2026-05-04 18:30 | 51.34338 | 7.01880 | 8858 ft | 249 kts | 53° |
| 2026-05-04 18:30 | 51.35406 | 7.04035 | 8531 ft | 246 kts | 53° |
| 2026-05-04 18:31 | 51.36465 | 7.06179 | 8146 ft | 246 kts | 53° |
| 2026-05-04 18:31 | 51.37519 | 7.08323 | 7786 ft | 244 kts | 53° |
| 2026-05-04 18:31 | 51.38565 | 7.10452 | 7420 ft | 244 kts | 53° |
| 2026-05-04 18:31 | 51.39614 | 7.12588 | 7109 ft | 241 kts | 53° |
| 2026-05-04 18:32 | 51.40647 | 7.14698 | 7006 ft | 244 kts | 53° |
| 2026-05-04 18:32 | 51.41693 | 7.16837 | 6977 ft | 243 kts | 53° |
| 2026-05-04 18:32 | 51.42740 | 7.18979 | 6975 ft | 243 kts | 53° |
| 2026-05-04 18:32 | 51.43782 | 7.21111 | 6975 ft | 244 kts | 53° |
| 2026-05-04 18:33 | 51.44332 | 7.22238 | 6974 ft | 243 kts | 53° |
| 2026-05-04 18:33 | 51.45395 | 7.24418 | 6974 ft | 243 kts | 53° |
| 2026-05-04 18:33 | 51.46437 | 7.26560 | 6973 ft | 243 kts | 53° |
| 2026-05-04 18:33 | 51.47552 | 7.28565 | 6858 ft | 242 kts | 36° |
| 2026-05-04 18:34 | 51.49089 | 7.29594 | 6531 ft | 241 kts | 4° |
| 2026-05-04 18:34 | 51.50717 | 7.29226 | 6139 ft | 237 kts | 332° |
| 2026-05-04 18:34 | 51.51953 | 7.27585 | 5762 ft | 230 kts | 299° |
| 2026-05-04 18:34 | 51.52432 | 7.25204 | 5387 ft | 223 kts | 266° |
| 2026-05-04 18:35 | 51.52024 | 7.22877 | 4998 ft | 218 kts | 233° |
| 2026-05-04 18:35 | 51.51002 | 7.21093 | 4661 ft | 216 kts | 223° |
| 2026-05-04 18:35 | 51.49916 | 7.19432 | 4325 ft | 215 kts | 220° |
| 2026-05-04 18:35 | 51.48833 | 7.17792 | 3970 ft | 216 kts | 225° |
| 2026-05-04 18:36 | 51.47858 | 7.15989 | 3628 ft | 216 kts | 230° |
| 2026-05-04 18:36 | 51.46968 | 7.14045 | 3300 ft | 216 kts | 232° |
| 2026-05-04 18:36 | 51.46057 | 7.12162 | 3063 ft | 212 kts | 231° |
| 2026-05-04 18:36 | 51.45145 | 7.10247 | 3006 ft | 218 kts | 232° |
| 2026-05-04 18:37 | 51.44237 | 7.08324 | 3010 ft | 216 kts | 231° |
| 2026-05-04 18:37 | 51.43327 | 7.06398 | 3012 ft | 216 kts | 232° |
| 2026-05-04 18:37 | 51.42418 | 7.04476 | 2999 ft | 216 kts | 231° |
| 2026-05-04 18:37 | 51.41541 | 7.02620 | 3002 ft | 201 kts | 231° |
| 2026-05-04 18:38 | 51.40736 | 7.00916 | 3005 ft | 183 kts | 231° |
| 2026-05-04 18:38 | 51.39990 | 6.99344 | 3014 ft | 180 kts | 231° |
| 2026-05-04 18:38 | 51.39230 | 6.97739 | 3001 ft | 179 kts | 231° |
| 2026-05-04 18:38 | 51.38474 | 6.96142 | 2981 ft | 180 kts | 231° |
| 2026-05-04 18:39 | 51.37713 | 6.94538 | 2779 ft | 181 kts | 231° |
| 2026-05-04 18:39 | 51.36960 | 6.92948 | 2537 ft | 178 kts | 231° |
| 2026-05-04 18:39 | 51.36211 | 6.91369 | 2295 ft | 178 kts | 231° |
| 2026-05-04 18:39 | 51.35465 | 6.89797 | 2056 ft | 177 kts | 231° |
| 2026-05-04 18:40 | 51.34978 | 6.88769 | 1897 ft | 174 kts | 231° |
| 2026-05-04 18:40 | 51.34251 | 6.87239 | 1666 ft | 171 kts | 231° |
| 2026-05-04 18:40 | 51.33549 | 6.85759 | 1442 ft | 161 kts | 231° |
| 2026-05-04 18:40 | 51.32696 | 6.83962 | 1150 ft | 145 kts | 230° |
| 2026-05-04 18:41 | 51.32066 | 6.82640 | 940 ft | 152 kts | 231° |
| 2026-05-04 18:41 | 51.31442 | 6.81321 | 725 ft | 147 kts | 231° |
| 2026-05-04 18:41 | 51.31017 | 6.80436 | 561 ft | 148 kts | 231° |
| 2026-05-04 18:41 | 51.30397 | 6.79118 | 387 ft | 148 kts | 231° |
| 2026-05-04 18:42 | 51.29778 | 6.77816 | 225 ft | 147 kts | 229° |
| 2026-05-04 18:42 | 51.29176 | 6.76572 | 157 ft | 128 kts | 233° |
| 2026-05-04 18:42 | 51.28820 | 6.75840 | 156 ft | 45 kts | 222° |
| 2026-05-04 18:42 | 51.28643 | 6.75681 | 156 ft | 14 kts | 186° |
| 2026-05-04 18:43 | 51.28545 | 6.75698 | 156 ft | 15 kts | 161° |
| 2026-05-04 18:43 | 51.28461 | 6.75776 | 156 ft | 10 kts | 141° |
| 2026-05-04 18:43 | 51.28411 | 6.75837 | 156 ft | 6 kts | 143° |
| 2026-05-04 18:43 | 51.28402 | 6.75848 | 156 ft | 0 kts | 143° |
| 2026-05-04 18:45 | 51.28399 | 6.75850 | 155 ft | 2 kts | 147° |
| 2026-05-04 18:45 | 51.28391 | 6.75860 | 155 ft | 0 kts | 144° |
| 2026-05-04 18:48 | 51.28371 | 6.75883 | 155 ft | 9 kts | 143° |
| 2026-05-04 18:48 | 51.28301 | 6.75966 | 155 ft | 14 kts | 149° |
| 2026-05-04 18:48 | 51.28206 | 6.75961 | 156 ft | 15 kts | 201° |
| 2026-05-04 18:49 | 51.28134 | 6.75906 | 156 ft | 0 kts | 205° |
| 2026-05-04 18:49 | 51.28124 | 6.75898 | 156 ft | 3 kts | 205° |
| 2026-05-04 18:50 | 51.28103 | 6.75882 | 156 ft | 19 kts | 205° |
| 2026-05-04 18:50 | 51.27970 | 6.75823 | 156 ft | 18 kts | 182° |
| 2026-05-04 18:50 | 51.27835 | 6.75818 | 156 ft | 20 kts | 181° |
| 2026-05-04 18:50 | 51.27778 | 6.75816 | 156 ft | 0 kts | 181° |
| 2026-05-04 18:51 | 51.27777 | 6.75816 | 156 ft | 1 kts | 182° |
| 2026-05-04 18:51 | 51.27743 | 6.75814 | 156 ft | 9 kts | 182° |
| 2026-05-04 18:51 | 51.27676 | 6.75829 | 156 ft | 9 kts | 150° |
| 2026-05-04 18:52 | 51.27678 | 6.75876 | 156 ft | 5 kts | 57° |
| 2026-05-04 18:52 | 51.27684 | 6.75915 | 156 ft | 1 kts | 93° |
| 2026-05-04 18:52 | 51.27684 | 6.75921 | 156 ft | 0 kts | 92° |